Time;durP1;ratioP1;P1;durP2;ratioP2;P2;SDS_P1;SDS_P2;PMS_P1;PMS_P2;Temp;Humidity;BMP_temperature;BMP_pressure;BME280_temperature;BME280_humidity;BME280_pressure;Samples;Min_cycle;Max_cycle;Signal;HPM_P1;HPM_P2
2022/08/02 00:02:06;;;;;;;2.90;2.37;;;;;;;19.51;100.00;156376.97;5048519;28;21019;-77
2022/08/02 00:04:33;;;;;;;2.73;2.20;;;;;;;19.46;100.00;156365.19;5048901;28;20436;-77
2022/08/02 00:07:00;;;;;;;2.40;2.07;;;;;;;19.44;100.00;156361.31;5047622;28;20488;-76
2022/08/02 00:09:26;;;;;;;2.40;2.20;;;;;;;19.44;100.00;156361.31;5047927;28;20463;-77
2022/08/02 00:11:53;;;;;;;2.57;2.37;;;;;;;19.39;100.00;156346.97;5034189;28;20459;-77
2022/08/02 00:14:21;;;;;;;2.90;2.10;;;;;;;19.43;100.00;156358.69;5027575;28;20465;-77
2022/08/02 00:16:48;;;;;;;2.33;2.13;;;;;;;19.41;100.00;156353.47;5048943;28;20460;-77
2022/08/02 00:19:15;;;;;;;2.53;2.33;;;;;;;19.41;100.00;156352.16;5045894;28;20468;-77
2022/08/02 00:21:42;;;;;;;2.80;2.00;;;;;;;19.40;100.00;156349.59;5033268;28;20432;-77
2022/08/02 00:24:09;;;;;;;2.70;2.40;;;;;;;19.46;100.00;156363.94;5031952;28;20436;-77
2022/08/02 00:26:35;;;;;;;2.90;2.70;;;;;;;19.46;100.00;156363.94;5055846;28;20457;-77
2022/08/02 00:29:02;;;;;;;3.33;2.97;;;;;;;19.46;100.00;156365.19;5051385;28;20434;-77
2022/08/02 00:31:32;;;;;;;3.63;2.80;;;;;;;19.41;100.00;156353.47;5034372;28;20542;-77
2022/08/02 00:33:58;;;;;;;2.87;2.57;;;;;;;19.37;100.00;156341.72;5035995;28;20923;-77
2022/08/02 00:36:25;;;;;;;2.90;2.63;;;;;;;19.35;100.00;156336.50;5049094;28;20465;-77
2022/08/02 00:38:52;;;;;;;4.37;2.87;;;;;;;19.34;100.00;156335.19;5051427;28;20501;-77
2022/08/02 00:41:21;;;;;;;3.10;2.80;;;;;;;19.34;100.00;156333.88;5017119;28;20448;-77
2022/08/02 00:43:48;;;;;;;3.07;2.77;;;;;;;19.39;100.00;156348.28;5047234;28;20439;-77
2022/08/02 00:46:15;;;;;;;4.23;3.10;;;;;;;19.33;100.00;156332.56;5036337;28;20485;-77
2022/08/02 00:48:44;;;;;;;4.80;3.60;;;;;;;19.29;100.00;156322.16;5010715;28;20445;-77
2022/08/02 00:51:11;;;;;;;4.77;3.10;;;;;;;19.28;100.00;156319.53;5028947;28;20428;-77
2022/08/02 00:53:38;;;;;;;2.90;2.70;;;;;;;19.30;100.00;156323.47;5031662;28;20439;-77
2022/08/02 00:56:04;;;;;;;3.60;3.30;;;;;;;19.28;100.00;156318.22;5046262;28;20464;-77
2022/08/02 00:58:31;;;;;;;4.07;3.77;;;;;;;19.26;100.00;156314.34;5031983;28;20439;-77
2022/08/02 01:00:59;;;;;;;3.97;3.10;;;;;;;19.26;100.00;156314.34;5032061;28;20475;-77
2022/08/02 01:03:26;;;;;;;3.70;3.30;;;;;;;19.27;100.00;156315.66;5046284;28;20542;-77
2022/08/02 01:05:54;;;;;;;4.60;2.90;;;;;;;19.29;100.00;156322.16;5051131;28;20477;-77
2022/08/02 01:08:21;;;;;;;4.00;3.60;;;;;;;19.28;100.00;156319.53;5031424;28;20550;-77
2022/08/02 01:10:48;;;;;;;3.60;2.70;;;;;;;19.27;100.00;156316.91;5033108;28;20693;-77
2022/08/02 01:13:15;;;;;;;3.37;3.07;;;;;;;19.22;100.00;156303.88;5036699;28;20943;-77
2022/08/02 01:15:48;;;;;;;3.17;2.87;;;;;;;19.22;100.00;156303.88;5046848;28;20479;-77
2022/08/02 01:18:19;;;;;;;3.00;2.70;;;;;;;19.16;100.00;156288.28;5047474;28;20873;-77
2022/08/02 01:21:09;;;;;;;3.40;2.77;;;;;;;19.14;100.00;156281.78;5037867;28;20546;-77
2022/08/02 01:23:52;;;;;;;4.30;2.70;;;;;;;19.17;100.00;156290.88;5045521;28;20447;-77
2022/08/02 01:26:32;;;;;;;3.37;2.13;;;;;;;19.14;100.00;156283.03;5030397;28;20439;-77
2022/08/02 01:29:04;;;;;;;2.33;2.13;;;;;;;19.10;100.00;156272.63;5032094;28;20511;-78
2022/08/02 01:31:34;;;;;;;3.07;2.77;;;;;;;19.07;100.00;156264.81;5053861;28;20462;-77
2022/08/02 01:34:05;;;;;;;3.03;2.40;;;;;;;19.06;100.00;156262.19;5036006;28;20439;-77
2022/08/02 01:36:34;;;;;;;3.43;2.30;;;;;;;19.04;100.00;156256.97;5046651;28;20790;-78
2022/08/02 01:39:04;;;;;;;3.80;2.77;;;;;;;19.01;100.00;156249.16;5048427;28;20941;-77
2022/08/02 01:41:31;;;;;;;3.00;2.30;;;;;;;19.02;100.00;156250.47;5031317;28;20676;-77
2022/08/02 01:44:01;;;;;;;3.20;2.90;;;;;;;18.95;100.00;156233.56;5029637;28;20796;-77
2022/08/02 01:46:29;;;;;;;3.03;2.30;;;;;;;18.96;100.00;156234.81;5011693;28;20532;-77
2022/08/02 01:48:58;;;;;;;2.97;2.67;;;;;;;18.92;100.00;156225.72;5030714;28;20530;-77
2022/08/02 01:54:07;;;;;;;5.50;2.50;;;;;;;18.88;100.00;156215.28;5045971;28;20455;-77
2022/08/02 01:56:35;;;;;;;2.60;2.40;;;;;;;18.84;100.00;156204.88;5046741;28;20844;-77
2022/08/02 01:59:03;;;;;;;3.43;2.70;;;;;;;18.83;100.00;156202.25;5030689;28;20491;-77
2022/08/02 02:01:32;;;;;;;2.63;2.30;;;;;;;18.78;100.00;156189.22;5047027;28;21069;-77
2022/08/02 02:04:02;;;;;;;3.33;2.30;;;;;;;18.78;100.00;156190.53;5030892;28;20762;-77
2022/08/02 02:06:29;;;;;;;2.67;2.47;;;;;;;18.74;100.00;156178.84;5045826;28;20560;-77
2022/08/02 02:08:56;;;;;;;3.40;2.43;;;;;;;18.74;100.00;156180.09;5038095;28;20537;-77
2022/08/02 02:11:23;;;;;;;3.50;2.87;;;;;;;18.75;100.00;156181.41;5030068;28;20447;-77
2022/08/02 02:13:50;;;;;;;4.40;2.30;;;;;;;18.73;100.00;156176.22;5029121;28;20439;-77
2022/08/02 02:16:19;;;;;;;5.00;2.07;;;;;;;18.70;100.00;156169.69;5029186;28;20585;-77
2022/08/02 02:18:47;;;;;;;2.63;2.13;;;;;;;18.67;100.00;156160.56;5049906;28;20926;-78
2022/08/02 02:21:13;;;;;;;2.10;1.90;;;;;;;18.65;100.00;156156.66;5049537;28;20943;-77
2022/08/02 02:23:42;;;;;;;3.13;2.10;;;;;;;18.64;100.00;156154.06;5046538;28;20525;-77
2022/08/02 02:26:11;;;;;;;2.77;2.53;;;;;;;18.62;100.00;156148.84;5045630;28;20939;-77
2022/08/02 02:28:39;;;;;;;2.90;2.57;;;;;;;18.65;100.00;156155.38;5040786;28;20550;-79
2022/08/02 02:31:07;;;;;;;3.63;2.60;;;;;;;18.67;100.00;156161.88;5066426;28;20474;-77
2022/08/02 02:33:39;;;;;;;3.30;3.00;;;;;;;18.68;100.00;156163.19;5030465;28;20530;-79
2022/08/02 02:36:08;;;;;;;2.57;2.37;;;;;;;18.66;100.00;156158.00;5046000;28;20466;-77
2022/08/02 02:38:36;;;;;;;3.40;2.73;;;;;;;18.66;100.00;156158.00;5040632;28;20452;-79
2022/08/02 02:41:05;;;;;;;2.77;2.57;;;;;;;18.65;100.00;156156.66;5030268;28;20439;-77
2022/08/02 02:43:33;;;;;;;2.47;2.17;;;;;;;18.66;100.00;156158.00;5048216;28;20435;-77
2022/08/02 02:46:01;;;;;;;2.87;2.50;;;;;;;18.59;100.00;156141.03;5046649;28;20457;-77
2022/08/02 02:48:28;;;;;;;3.67;2.80;;;;;;;18.56;100.00;156131.94;5066967;28;20451;-78
2022/08/02 02:50:56;;;;;;;2.90;2.50;;;;;;;18.50;100.00;156116.31;5050046;28;20436;-77
2022/08/02 02:53:23;;;;;;;3.00;2.70;;;;;;;18.46;100.00;156105.81;5051124;28;20507;-79
2022/08/02 02:55:50;;;;;;;4.27;2.90;;;;;;;18.43;100.00;156099.28;5053855;28;20474;-79
2022/08/02 02:58:17;;;;;;;2.80;2.50;;;;;;;18.42;100.00;156095.41;5045278;28;20893;-79
2022/08/02 03:03:30;;;;;;;2.70;2.50;;;;;;;18.33;100.00;156073.25;5048658;28;20840;-79
2022/08/02 03:05:58;;;;;;;2.70;2.40;;;;;;;18.32;100.00;156070.63;5046589;28;20447;-78
2022/08/02 03:08:25;;;;;;;3.60;3.13;;;;;;;18.29;100.00;156061.53;5050368;28;20467;-78
2022/08/02 03:10:52;;;;;;;3.03;2.73;;;;;;;18.22;100.00;156045.91;5044603;28;20431;-79
2022/08/02 03:13:19;;;;;;;2.90;2.63;;;;;;;18.24;100.00;156051.09;5039959;28;20541;-79
2022/08/02 03:15:46;;;;;;;3.43;2.63;;;;;;;18.18;100.00;156035.50;5048458;28;20727;-78
2022/08/02 03:18:31;;;;;;;2.80;2.47;;;;;;;18.11;100.00;156017.25;5049697;28;20447;-79
2022/08/02 03:21:01;;;;;;;2.90;2.57;;;;;;;18.12;100.00;156019.88;5049055;28;20450;-79
2022/08/02 03:23:27;;;;;;;3.50;3.20;;;;;;;18.07;100.00;156006.84;5047433;28;20452;-79
2022/08/02 03:25:54;;;;;;;3.67;3.00;;;;;;;18.12;100.00;156018.56;5012907;28;20889;-79
2022/08/02 03:28:21;;;;;;;3.70;2.97;;;;;;;18.12;100.00;156019.88;5015030;28;20860;-78
2022/08/02 03:30:48;;;;;;;4.40;2.67;;;;;;;18.10;100.00;156014.66;5014202;28;20886;-79
2022/08/02 03:33:15;;;;;;;3.40;3.10;;;;;;;18.06;100.00;156002.91;5045074;28;20475;-78
2022/08/02 03:35:42;;;;;;;2.77;2.50;;;;;;;18.04;100.00;155999.03;5028797;28;20567;-79
2022/08/02 03:38:11;;;;;;;4.13;2.67;;;;;;;17.97;100.00;155980.81;5021962;28;20798;-78
2022/08/02 03:40:38;;;;;;;3.10;2.80;;;;;;;17.93;100.00;155969.06;5032950;28;20858;-78
2022/08/02 03:43:05;;;;;;;2.70;2.50;;;;;;;17.90;100.00;155961.25;5042260;28;20487;-78
2022/08/02 03:45:32;;;;;;;3.20;2.77;;;;;;;17.94;100.00;155973.00;5043134;28;20443;-78
2022/08/02 03:47:59;;;;;;;5.60;3.40;;;;;;;17.89;100.00;155958.66;5050087;28;20439;-79
2022/08/02 03:50:27;;;;;;;3.70;3.00;;;;;;;17.89;100.00;155959.97;5048409;28;20977;-78
2022/08/02 03:52:53;;;;;;;5.80;3.20;;;;;;;17.85;100.00;155949.53;5053064;28;20451;-78
2022/08/02 03:55:22;;;;;;;3.47;3.10;;;;;;;17.84;100.00;155946.97;5052995;28;21020;-79
2022/08/02 03:57:48;;;;;;;4.30;3.90;;;;;;;17.81;100.00;155937.84;5037184;28;20562;-78
2022/08/02 04:00:18;;;;;;;3.33;3.03;;;;;;;17.77;100.00;155928.69;5032950;28;20499;-78
2022/08/02 04:02:45;;;;;;;7.07;3.93;;;;;;;17.78;100.00;155930.00;5031141;28;20472;-79
2022/08/02 04:05:12;;;;;;;3.53;3.07;;;;;;;17.78;100.00;155931.31;5051104;28;21024;-78
2022/08/02 04:07:39;;;;;;;4.97;2.77;;;;;;;17.75;100.00;155923.50;5033832;28;20444;-79
2022/08/02 04:10:06;;;;;;;3.70;2.97;;;;;;;17.77;100.00;155927.38;5043778;28;20530;-79
2022/08/02 04:12:34;;;;;;;3.27;2.70;;;;;;;17.73;100.00;155918.31;5050268;28;20447;-79
2022/08/02 04:15:02;;;;;;;4.80;3.17;;;;;;;17.74;100.00;155920.88;5036542;28;20834;-78
2022/08/02 04:17:32;;;;;;;4.00;3.03;;;;;;;17.77;100.00;155927.38;5047739;28;20833;-79
2022/08/02 04:20:02;;;;;;;3.90;3.60;;;;;;;17.79;100.00;155932.63;5048370;28;20440;-78
2022/08/02 04:22:32;;;;;;;4.50;3.37;;;;;;;17.82;100.00;155941.72;5047213;28;20451;-78
2022/08/02 04:25:02;;;;;;;3.47;2.97;;;;;;;17.83;100.00;155944.34;5031735;28;20488;-79
2022/08/02 04:27:29;;;;;;;4.30;3.27;;;;;;;17.86;100.00;155950.84;5028057;28;21043;-79
2022/08/02 04:29:57;;;;;;;3.00;2.70;;;;;;;17.85;100.00;155949.53;5031052;28;20454;-79
2022/08/02 04:32:24;;;;;;;4.47;3.10;;;;;;;17.84;100.00;155945.66;5033152;28;20531;-78
2022/08/02 04:34:51;;;;;;;3.40;3.10;;;;;;;17.87;100.00;155954.72;5032340;28;20435;-78
2022/08/02 04:37:18;;;;;;;3.03;2.80;;;;;;;17.92;100.00;155967.78;5047541;28;20498;-78
2022/08/02 04:39:44;;;;;;;3.80;3.23;;;;;;;17.96;100.00;155978.19;5047794;28;20500;-78
2022/08/02 04:42:20;;;;;;;3.40;3.10;;;;;;;17.97;100.00;155980.81;5049809;28;20454;-78
2022/08/02 04:44:47;;;;;;;3.00;2.70;;;;;;;17.96;100.00;155978.19;5047005;28;20522;-78
2022/08/02 04:47:15;;;;;;;3.80;3.50;;;;;;;17.98;100.00;155983.38;5047414;28;20448;-78
2022/08/02 04:49:42;;;;;;;3.33;3.03;;;;;;;18.01;100.00;155991.22;5046162;28;20450;-78
2022/08/02 04:52:09;;;;;;;3.20;2.93;;;;;;;18.01;100.00;155991.22;5052345;28;20439;-78
2022/08/02 04:54:35;;;;;;;3.70;3.40;;;;;;;18.07;100.00;156005.53;5050965;28;20529;-78
2022/08/02 04:57:53;;;;;;;6.67;3.80;;;;;;;18.16;100.00;156029.00;5061482;28;20496;-78
2022/08/02 04:59:49;;;;;;;3.60;3.30;;;;;;;18.25;100.00;156053.72;5046711;28;20491;-78
2022/08/02 05:02:17;;;;;;;3.80;3.43;;;;;;;18.42;100.00;156095.41;5050095;28;20451;-78
2022/08/02 05:04:44;;;;;;;3.50;2.70;;;;;;;18.63;100.00;156150.16;5045344;28;20946;-78
2022/08/02 05:07:11;;;;;;;4.70;3.50;;;;;;;18.88;100.00;156215.28;5029426;28;20781;-78
2022/08/02 05:09:37;;;;;;;4.60;3.10;;;;;;;19.05;100.00;156259.59;5041180;28;20894;-79
2022/08/02 05:12:04;;;;;;;4.23;2.90;;;;;;;19.23;100.00;156306.53;5046480;28;20492;-79
2022/08/02 05:14:31;;;;;;;3.90;3.30;;;;;;;19.35;100.00;156336.50;5056546;28;20542;-76
2022/08/02 05:16:57;;;;;;;7.40;3.40;;;;;;;19.46;100.00;156363.94;5050267;28;20999;-76
2022/08/02 05:19:26;;;;;;;3.83;3.50;;;;;;;19.58;100.00;156396.50;5048262;28;20934;-76
2022/08/02 05:21:52;;;;;;;4.10;2.93;;;;;;;19.65;100.00;156413.44;5059657;28;20459;-77
2022/08/02 05:24:19;;;;;;;3.47;2.90;;;;;;;19.84;100.00;156464.31;5047312;28;20486;-77
2022/08/02 05:26:46;;;;;;;3.60;2.73;;;;;;;20.05;99.57;156517.75;5063616;28;20470;-77
2022/08/02 05:29:13;;;;;;;3.10;2.70;;;;;;;20.35;98.88;156596.06;5040469;28;20445;-77
2022/08/02 05:31:39;;;;;;;3.47;2.80;;;;;;;20.67;96.90;156676.94;5038994;28;20837;-77
2022/08/02 05:34:06;;;;;;;4.00;2.43;;;;;;;20.86;95.98;156727.84;5031641;28;20467;-79
2022/08/02 05:36:34;;;;;;;3.47;3.17;;;;;;;21.10;94.83;156790.50;5030669;28;20479;-77
2022/08/02 05:39:01;;;;;;;2.80;2.60;;;;;;;21.27;93.83;156833.56;5047107;28;20485;-77
2022/08/02 05:41:27;;;;;;;3.23;2.80;;;;;;;21.30;92.05;156840.09;5050256;28;20449;-77
2022/08/02 05:43:54;;;;;;;3.30;2.90;;;;;;;21.06;92.05;156780.06;5051517;28;20437;-80
2022/08/02 05:46:21;;;;;;;4.70;3.00;;;;;;;20.97;92.46;156755.25;5041858;28;20473;-77
2022/08/02 05:48:48;;;;;;;3.37;2.93;;;;;;;21.21;93.01;156817.91;5029099;28;20456;-79
2022/08/02 05:51:21;;;;;;;3.00;2.70;;;;;;;21.45;92.03;156880.53;5029886;28;20450;-77
2022/08/02 05:53:54;;;;;;;3.80;3.50;;;;;;;21.69;90.98;156943.22;5030741;28;20919;-80
2022/08/02 05:56:24;;;;;;;3.17;2.87;;;;;;;22.21;89.68;157076.47;5041530;28;20557;-80
2022/08/02 05:58:58;;;;;;;3.20;2.90;;;;;;;22.56;87.53;157167.88;5029029;28;20459;-79
2022/08/02 06:01:28;;;;;;;3.70;3.30;;;;;;;22.79;85.17;157228.06;5032226;28;20558;-80
2022/08/02 06:03:57;;;;;;;5.03;3.37;;;;;;;22.91;84.47;157259.38;5065512;28;20431;-80
2022/08/02 06:06:32;;;;;;;5.13;2.97;;;;;;;22.81;83.15;157233.25;5030208;28;20906;-78
2022/08/02 06:09:02;;;;;;;3.60;3.17;;;;;;;22.62;82.56;157182.25;5010284;28;20441;-78
2022/08/02 06:11:41;;;;;;;3.57;3.27;;;;;;;22.51;83.93;157154.81;5062514;28;20832;-78
2022/08/02 06:14:08;;;;;;;5.70;3.30;;;;;;;22.54;83.41;157162.66;5032082;28;20816;-78
2022/08/02 06:16:35;;;;;;;3.90;3.10;;;;;;;22.69;84.39;157200.63;5028581;28;20511;-78
2022/08/02 06:19:02;;;;;;;5.27;3.63;;;;;;;22.91;85.12;157258.06;5047205;28;20494;-79
2022/08/02 06:21:30;;;;;;;4.13;3.63;;;;;;;22.90;83.56;157255.50;5052103;28;20537;-78
2022/08/02 06:23:58;;;;;;;4.97;3.70;;;;;;;22.88;83.64;157250.22;5048072;28;20498;-78
2022/08/02 06:26:26;;;;;;;4.37;3.43;;;;;;;22.80;84.27;157230.63;5030866;28;20537;-78
2022/08/02 06:28:53;;;;;;;5.70;3.40;;;;;;;22.95;84.80;157269.81;5032387;28;20451;-78
2022/08/02 06:31:20;;;;;;;5.20;3.80;;;;;;;23.18;83.96;157327.34;5048482;28;20532;-78
2022/08/02 06:33:51;;;;;;;4.80;3.90;;;;;;;23.39;83.57;157383.59;5049832;28;20440;-78
2022/08/02 06:36:24;;;;;;;4.23;3.83;;;;;;;23.67;82.74;157454.19;5034009;28;20468;-78
2022/08/02 06:38:59;;;;;;;4.90;3.93;;;;;;;23.72;81.10;157468.56;5060434;28;20554;-78
2022/08/02 06:41:29;;;;;;;6.30;3.77;;;;;;;23.99;78.95;157539.13;5049875;28;20454;-78
2022/08/02 06:44:03;;;;;;;4.67;3.10;;;;;;;24.15;76.65;157581.03;5034747;28;20424;-78
2022/08/02 06:46:29;;;;;;;4.77;3.87;;;;;;;24.39;79.17;157642.50;5044805;28;20546;-78
2022/08/02 06:48:56;;;;;;;3.73;3.43;;;;;;;24.59;76.00;157693.53;5049542;28;20547;-78
2022/08/02 06:51:23;;;;;;;4.00;3.60;;;;;;;24.50;73.43;157669.97;5033289;28;20455;-78
2022/08/02 06:53:50;;;;;;;3.70;3.30;;;;;;;24.86;74.96;157762.94;5049759;28;20446;-78
2022/08/02 06:56:18;;;;;;;3.83;3.43;;;;;;;25.06;73.03;157815.25;5046528;28;20507;-78
2022/08/02 06:58:46;;;;;;;4.70;4.30;;;;;;;25.26;71.49;157868.88;5049287;28;20534;-78
2022/08/02 07:01:13;;;;;;;4.33;3.83;;;;;;;25.19;71.68;157849.25;5033424;28;20471;-78
2022/08/02 07:03:40;;;;;;;8.30;3.53;;;;;;;25.22;72.62;157858.44;5049121;28;20497;-78
2022/08/02 07:06:08;;;;;;;5.70;4.72;;;;;;;25.18;70.16;157847.94;5032096;28;20527;-79
2022/08/02 07:08:37;;;;;;;4.40;4.00;;;;;;;25.13;71.02;157834.84;5016063;28;20481;-78
2022/08/02 07:11:04;;;;;;;3.47;3.10;;;;;;;25.13;71.66;157834.84;5048522;28;20455;-78
2022/08/02 07:13:30;;;;;;;4.87;4.00;;;;;;;25.20;72.33;157853.22;5033399;28;20431;-78
2022/08/02 07:15:59;;;;;;;4.13;3.80;;;;;;;25.34;71.47;157888.50;5039705;28;20512;-78
2022/08/02 07:18:26;;;;;;;5.20;4.10;;;;;;;25.27;70.60;157871.53;5038504;28;20506;-78
2022/08/02 07:20:52;;;;;;;4.80;4.40;;;;;;;25.49;69.29;157927.84;5040851;28;20452;-78
2022/08/02 07:23:19;;;;;;;4.63;4.23;;;;;;;25.43;70.28;157913.41;5026779;28;20908;-78
2022/08/02 07:25:47;;;;;;;4.60;3.97;;;;;;;25.49;69.79;157926.53;5048745;28;20427;-78
2022/08/02 07:28:15;;;;;;;4.60;4.20;;;;;;;25.51;69.06;157933.06;5031599;28;20448;-78
2022/08/02 07:30:42;;;;;;;4.47;4.03;;;;;;;25.23;70.12;157861.03;5031052;28;20467;-78
2022/08/02 07:33:10;;;;;;;4.77;4.27;;;;;;;25.15;70.04;157838.81;5048557;28;20550;-78
2022/08/02 07:35:37;;;;;;;4.30;3.90;;;;;;;25.42;70.92;157910.75;5048196;28;20814;-78
2022/08/02 07:38:03;;;;;;;6.27;4.50;;;;;;;25.50;68.73;157929.13;5028532;28;20514;-78
2022/08/02 07:40:41;;;;;;;4.67;4.37;;;;;;;25.46;69.15;157918.63;5049230;28;20825;-78
2022/08/02 07:43:08;;;;;;;4.70;4.30;;;;;;;25.64;68.81;157965.78;5051812;28;20446;-78
2022/08/02 07:45:35;;;;;;;4.57;4.17;;;;;;;25.80;70.45;158007.69;5054651;28;20481;-78
2022/08/02 07:48:02;;;;;;;5.53;4.00;;;;;;;25.70;68.48;157981.50;5042452;28;20487;-78
2022/08/02 07:50:30;;;;;;;6.27;4.63;;;;;;;25.47;68.85;157921.31;5045841;28;20468;-78
2022/08/02 07:52:56;;;;;;;4.50;4.10;;;;;;;25.73;68.50;157990.69;5042444;28;20455;-78
2022/08/02 07:55:23;;;;;;;4.70;4.03;;;;;;;26.12;67.97;158091.47;5036518;28;20460;-78
2022/08/02 07:57:52;;;;;;;5.43;4.67;;;;;;;26.56;65.95;158206.75;5027857;28;20511;-78
2022/08/02 08:00:18;;;;;;;4.40;4.00;;;;;;;26.85;64.75;158280.16;5032239;28;20475;-79
2022/08/02 08:02:46;;;;;;;4.90;4.50;;;;;;;26.99;63.51;158316.84;5030606;28;20486;-78
2022/08/02 08:05:13;;;;;;;4.87;4.40;;;;;;;27.19;64.81;158369.28;5028590;28;20458;-79
2022/08/02 08:07:43;;;;;;;4.70;4.20;;;;;;;27.37;63.76;158415.13;5014115;28;20451;-78
2022/08/02 08:10:11;;;;;;;4.13;3.73;;;;;;;27.65;62.85;158488.53;5037331;28;20442;-78
2022/08/02 08:12:38;;;;;;;4.67;4.27;;;;;;;27.60;62.34;158475.44;5038566;28;20456;-78
2022/08/02 08:15:05;;;;;;;4.27;3.87;;;;;;;27.66;62.55;158492.50;5032978;28;20486;-78
2022/08/02 08:17:34;;;;;;;5.53;4.37;;;;;;;27.85;60.68;158539.69;5047969;28;20534;-78
2022/08/02 08:20:01;;;;;;;4.47;4.10;;;;;;;27.68;61.21;158496.41;5031187;28;20455;-78
2022/08/02 08:22:28;;;;;;;5.03;4.63;;;;;;;27.60;62.26;158476.75;5039211;28;20528;-78
2022/08/02 08:24:56;;;;;;;5.23;4.83;;;;;;;27.73;60.86;158509.53;5048931;28;20542;-78
2022/08/02 08:27:23;;;;;;;7.50;4.90;;;;;;;28.06;59.23;158594.78;5034910;28;20460;-78
2022/08/02 08:29:50;;;;;;;4.40;4.00;;;;;;;28.08;59.72;158600.03;5032870;28;20927;-78
2022/08/02 08:32:16;;;;;;;5.97;5.20;;;;;;;27.80;59.59;158527.84;5032447;28;20446;-78
2022/08/02 08:34:43;;;;;;;5.20;4.80;;;;;;;27.71;60.20;158504.28;5032828;28;20432;-78
2022/08/02 08:37:12;;;;;;;4.97;4.23;;;;;;;28.26;58.80;158647.22;5028838;28;20480;-78
2022/08/02 08:39:38;;;;;;;4.57;4.17;;;;;;;28.66;58.02;158750.84;5059325;28;20805;-78
2022/08/02 08:42:07;;;;;;;6.17;4.37;;;;;;;28.04;59.00;158590.84;5047816;28;20448;-78
2022/08/02 08:44:34;;;;;;;5.03;4.53;;;;;;;28.31;57.32;158660.31;5045791;28;20538;-78
2022/08/02 08:47:03;;;;;;;6.17;4.50;;;;;;;28.13;58.96;158614.44;5052214;28;20461;-78
2022/08/02 08:49:32;;;;;;;4.83;4.33;;;;;;;28.41;58.40;158685.25;5053399;28;20470;-78
2022/08/02 08:52:04;;;;;;;5.07;4.67;;;;;;;28.37;57.08;158676.06;5068042;28;20485;-78
2022/08/02 08:54:32;;;;;;;4.37;4.07;;;;;;;28.20;57.87;158632.78;5028858;28;20461;-78
2022/08/02 08:57:04;;;;;;;4.77;4.47;;;;;;;28.67;56.39;158754.81;5046960;28;20575;-78
2022/08/02 08:59:33;;;;;;;5.77;5.27;;;;;;;28.79;56.03;158786.28;5047070;28;20534;-79
2022/08/02 09:02:00;;;;;;;5.93;5.43;;;;;;;28.68;55.58;158757.41;5047405;28;20802;-79
2022/08/02 09:04:27;;;;;;;5.60;5.07;;;;;;;28.65;55.12;158749.53;5044464;28;20466;-78
2022/08/02 09:06:54;;;;;;;5.10;4.70;;;;;;;28.37;55.36;158676.06;5031720;28;20490;-79
2022/08/02 09:09:21;;;;;;;5.53;5.00;;;;;;;28.09;56.58;158602.66;5047534;28;20458;-78
2022/08/02 09:11:47;;;;;;;6.20;5.60;;;;;;;27.97;55.26;158571.13;5047292;28;20993;-78
2022/08/02 09:14:25;;;;;;;6.40;5.87;;;;;;;27.44;55.99;158433.50;5045678;28;20505;-78
2022/08/02 09:16:54;;;;;;;6.43;5.83;;;;;;;27.16;55.70;158361.41;5031552;28;20499;-78
2022/08/02 09:19:22;;;;;;;5.30;4.90;;;;;;;27.09;56.27;158343.03;5047104;28;20478;-78
2022/08/02 09:21:49;;;;;;;7.13;5.80;;;;;;;27.17;56.08;158364.00;5040307;28;20456;-78
2022/08/02 09:24:17;;;;;;;6.87;5.00;;;;;;;27.57;58.41;158468.91;5034861;28;20451;-78
2022/08/02 09:26:44;;;;;;;5.60;5.10;;;;;;;28.11;60.01;158609.22;5055565;28;20857;-78
2022/08/02 09:29:11;;;;;;;5.63;5.13;;;;;;;28.11;53.97;158607.91;5042784;28;20800;-78
2022/08/02 09:31:38;;;;;;;5.60;5.20;;;;;;;28.08;55.86;158601.34;5045930;28;20495;-77
2022/08/02 09:34:06;;;;;;;5.83;5.40;;;;;;;28.10;56.50;158605.25;5028931;28;20451;-77
2022/08/02 09:36:38;;;;;;;5.93;5.30;;;;;;;28.18;56.16;158626.22;5028660;28;20966;-77
2022/08/02 09:39:07;;;;;;;6.27;5.40;;;;;;;28.13;53.79;158613.13;5031389;28;20515;-77
2022/08/02 09:41:35;;;;;;;7.37;6.67;;;;;;;27.80;53.73;158529.16;5048827;28;20442;-77
2022/08/02 09:44:04;;;;;;;7.13;5.50;;;;;;;27.55;55.59;158463.66;5034813;28;20448;-77
2022/08/02 09:46:35;;;;;;;5.90;5.40;;;;;;;27.25;56.89;158383.66;5030915;28;20927;-77
2022/08/02 09:49:03;;;;;;;6.20;5.70;;;;;;;26.74;57.62;158252.59;5046282;28;20428;-77
2022/08/02 09:51:34;;;;;;;5.13;4.73;;;;;;;26.50;59.82;158191.03;5041603;28;20562;-77
2022/08/02 09:54:02;;;;;;;6.13;5.63;;;;;;;26.27;60.49;158129.47;5051067;28;20525;-77
2022/08/02 09:56:40;;;;;;;5.53;5.13;;;;;;;26.06;60.32;158074.44;5050076;28;20477;-77
2022/08/02 09:59:08;;;;;;;5.33;4.93;;;;;;;26.20;61.16;158112.47;5063528;28;20449;-77
2022/08/02 10:01:34;;;;;;;6.80;6.13;;;;;;;25.98;61.37;158056.13;5050805;28;20510;-77
2022/08/02 10:04:04;;;;;;;6.93;6.33;;;;;;;26.05;60.79;158073.16;5031381;28;20460;-77
2022/08/02 10:06:33;;;;;;;5.97;5.10;;;;;;;26.23;58.91;158120.34;5029723;28;20804;-77
2022/08/02 10:09:00;;;;;;;6.43;5.93;;;;;;;26.19;59.77;158108.53;5030482;28;20943;-77
2022/08/02 10:11:28;;;;;;;5.43;5.03;;;;;;;25.94;60.92;158045.66;5029748;28;20570;-77
2022/08/02 10:13:55;;;;;;;5.83;5.30;;;;;;;25.95;60.27;158048.25;5030264;28;20452;-77
2022/08/02 10:16:24;;;;;;;6.30;5.70;;;;;;;26.01;57.95;158062.66;5031047;28;20900;-77
2022/08/02 10:18:51;;;;;;;5.60;5.20;;;;;;;26.01;57.78;158062.66;5029133;28;20510;-77
2022/08/02 10:21:21;;;;;;;5.50;5.10;;;;;;;26.01;58.26;158062.66;5046248;28;20451;-77
2022/08/02 10:23:50;;;;;;;5.30;4.90;;;;;;;26.05;56.02;158073.16;5043334;28;21072;-76
2022/08/02 10:26:19;;;;;;;6.40;5.90;;;;;;;26.29;58.92;158136.03;5051269;28;20460;-77
2022/08/02 10:28:49;;;;;;;5.50;5.00;;;;;;;26.42;59.21;158170.06;5036734;28;20435;-77
2022/08/02 10:31:20;;;;;;;5.37;4.93;;;;;;;26.55;57.81;158204.19;5057863;28;20783;-77
2022/08/02 10:33:49;;;;;;;6.00;5.50;;;;;;;26.52;57.14;158196.31;5035166;28;20439;-77
2022/08/02 10:36:15;;;;;;;5.10;4.70;;;;;;;26.59;58.25;158214.63;5030110;28;20484;-77
2022/08/02 10:38:43;;;;;;;5.43;4.93;;;;;;;26.51;56.91;158193.66;5030147;28;20903;-77
2022/08/02 10:41:12;;;;;;;5.20;4.80;;;;;;;26.63;56.31;158222.50;5043729;28;20534;-77
2022/08/02 10:43:44;;;;;;;6.17;5.67;;;;;;;26.94;59.55;158305.06;5044064;28;20852;-77
2022/08/02 10:46:34;;;;;;;6.80;5.70;;;;;;;26.94;59.49;158303.75;5033270;28;20505;-77
2022/08/02 10:49:11;;;;;;;5.77;5.33;;;;;;;26.76;59.02;158257.88;5029024;28;20466;-77
2022/08/02 10:52:09;;;;;;;7.17;5.97;;;;;;;26.89;58.27;158290.66;5037548;28;20570;-77
2022/08/02 10:54:38;;;;;;;5.93;5.43;;;;;;;26.67;58.79;158232.94;5001893;28;20453;-76
2022/08/02 10:57:21;;;;;;;6.23;5.63;;;;;;;26.39;60.10;158160.94;5015632;28;20977;-77
2022/08/02 10:59:49;;;;;;;7.03;6.47;;;;;;;26.30;59.86;158138.66;5044507;28;20483;-77
2022/08/02 11:02:36;;;;;;;6.80;6.10;;;;;;;26.30;61.57;158137.34;5026554;28;20538;-77
2022/08/02 11:05:11;;;;;;;6.67;6.10;;;;;;;26.60;58.97;158215.94;5020224;28;20511;-77
2022/08/02 11:07:40;;;;;;;6.13;5.60;;;;;;;26.43;59.20;158172.72;5042930;28;20486;-77
2022/08/02 11:10:30;;;;;;;6.70;6.10;;;;;;;26.50;58.11;158191.03;5034267;28;20431;-76
2022/08/02 11:13:04;;;;;;;8.10;6.60;;;;;;;26.52;57.90;158195.00;5035276;28;20456;-77
2022/08/02 11:15:51;;;;;;;6.30;5.80;;;;;;;26.56;57.21;158205.44;5043955;28;20450;-77
2022/08/02 11:18:18;;;;;;;6.43;5.90;;;;;;;26.48;58.20;158184.47;5034103;28;20562;-76
2022/08/02 11:20:45;;;;;;;6.00;5.50;;;;;;;26.46;57.85;158180.56;5034385;28;20438;-77
2022/08/02 11:23:34;;;;;;;6.37;5.57;;;;;;;26.71;57.50;158243.44;5034390;28;20467;-77
2022/08/02 11:26:04;;;;;;;5.70;5.20;;;;;;;27.11;56.19;158348.31;5047793;28;20462;-77
2022/08/02 11:28:32;;;;;;;5.83;5.33;;;;;;;27.19;55.95;158369.28;5041452;28;20448;-77
2022/08/02 11:31:01;;;;;;;6.77;5.43;;;;;;;27.04;56.05;158329.94;5032650;28;20474;-75
2022/08/02 11:33:32;;;;;;;5.90;5.40;;;;;;;27.10;55.48;158347.00;5032489;28;20462;-77
2022/08/02 11:36:04;;;;;;;5.57;5.10;;;;;;;27.09;55.56;158343.03;5039188;28;20455;-77